sensor_id;sensor_type;location;lat;lon;timestamp;P1;durP1;ratioP1;P2;durP2;ratioP2
14592;SDS011;7383;52.354;9.756;2023-11-18T00:01:08;7.95;;;7.32;;
14592;SDS011;7383;52.354;9.756;2023-11-18T00:03:35;7.90;;;7.25;;
14592;SDS011;7383;52.354;9.756;2023-11-18T00:06:03;8.63;;;7.80;;
14592;SDS011;7383;52.354;9.756;2023-11-18T00:08:30;8.15;;;7.45;;
14592;SDS011;7383;52.354;9.756;2023-11-18T00:10:57;8.57;;;7.82;;
14592;SDS011;7383;52.354;9.756;2023-11-18T00:13:24;8.55;;;7.82;;
14592;SDS011;7383;52.354;9.756;2023-11-18T00:15:51;8.35;;;7.70;;
14592;SDS011;7383;52.354;9.756;2023-11-18T00:18:18;9.27;;;8.38;;
14592;SDS011;7383;52.354;9.756;2023-11-18T00:20:47;7.95;;;7.25;;
14592;SDS011;7383;52.354;9.756;2023-11-18T00:23:17;9.98;;;9.07;;
14592;SDS011;7383;52.354;9.756;2023-11-18T00:25:45;9.00;;;8.27;;
14592;SDS011;7383;52.354;9.756;2023-11-18T00:28:12;8.38;;;7.68;;
14592;SDS011;7383;52.354;9.756;2023-11-18T00:30:38;8.50;;;7.80;;
14592;SDS011;7383;52.354;9.756;2023-11-18T00:33:05;8.98;;;8.23;;
14592;SDS011;7383;52.354;9.756;2023-11-18T00:35:32;9.25;;;8.40;;
14592;SDS011;7383;52.354;9.756;2023-11-18T00:37:59;9.98;;;9.07;;
14592;SDS011;7383;52.354;9.756;2023-11-18T00:40:27;9.77;;;8.93;;
14592;SDS011;7383;52.354;9.756;2023-11-18T00:42:54;9.90;;;9.00;;
14592;SDS011;7383;52.354;9.756;2023-11-18T00:45:21;9.88;;;8.90;;
14592;SDS011;7383;52.354;9.756;2023-11-18T00:47:47;10.10;;;9.10;;
14592;SDS011;7383;52.354;9.756;2023-11-18T00:50:15;10.23;;;9.30;;
14592;SDS011;7383;52.354;9.756;2023-11-18T00:52:42;9.85;;;8.95;;
14592;SDS011;7383;52.354;9.756;2023-11-18T00:55:09;9.70;;;8.80;;
14592;SDS011;7383;52.354;9.756;2023-11-18T00:57:39;8.80;;;8.10;;
14592;SDS011;7383;52.354;9.756;2023-11-18T01:00:06;9.40;;;8.50;;
14592;SDS011;7383;52.354;9.756;2023-11-18T01:02:39;9.30;;;8.45;;
14592;SDS011;7383;52.354;9.756;2023-11-18T01:05:05;9.18;;;8.38;;
14592;SDS011;7383;52.354;9.756;2023-11-18T01:07:36;9.85;;;8.85;;
14592;SDS011;7383;52.354;9.756;2023-11-18T01:10:03;8.70;;;7.90;;
14592;SDS011;7383;52.354;9.756;2023-11-18T01:12:31;9.57;;;8.75;;
14592;SDS011;7383;52.354;9.756;2023-11-18T01:14:59;10.23;;;9.27;;
14592;SDS011;7383;52.354;9.756;2023-11-18T01:17:26;11.88;;;10.73;;
14592;SDS011;7383;52.354;9.756;2023-11-18T01:19:52;12.00;;;10.80;;
14592;SDS011;7383;52.354;9.756;2023-11-18T01:25:17;11.13;;;10.02;;
14592;SDS011;7383;52.354;9.756;2023-11-18T01:27:45;9.90;;;9.00;;
14592;SDS011;7383;52.354;9.756;2023-11-18T01:30:14;10.23;;;9.32;;
14592;SDS011;7383;52.354;9.756;2023-11-18T01:32:41;9.82;;;8.93;;
14592;SDS011;7383;52.354;9.756;2023-11-18T01:35:08;9.52;;;8.73;;
14592;SDS011;7383;52.354;9.756;2023-11-18T01:37:36;9.35;;;8.45;;
14592;SDS011;7383;52.354;9.756;2023-11-18T01:40:03;9.75;;;8.82;;
14592;SDS011;7383;52.354;9.756;2023-11-18T01:42:32;10.77;;;9.68;;
14592;SDS011;7383;52.354;9.756;2023-11-18T01:45:02;11.02;;;9.93;;
14592;SDS011;7383;52.354;9.756;2023-11-18T01:47:32;10.77;;;9.75;;
14592;SDS011;7383;52.354;9.756;2023-11-18T01:49:59;10.38;;;9.35;;
14592;SDS011;7383;52.354;9.756;2023-11-18T01:52:30;9.63;;;8.73;;
14592;SDS011;7383;52.354;9.756;2023-11-18T01:54:58;10.05;;;9.10;;
14592;SDS011;7383;52.354;9.756;2023-11-18T01:57:27;10.43;;;9.43;;
14592;SDS011;7383;52.354;9.756;2023-11-18T01:59:55;10.88;;;9.77;;
14592;SDS011;7383;52.354;9.756;2023-11-18T02:02:23;10.63;;;9.55;;
14592;SDS011;7383;52.354;9.756;2023-11-18T02:04:53;10.48;;;9.50;;
14592;SDS011;7383;52.354;9.756;2023-11-18T02:07:20;11.23;;;10.23;;
14592;SDS011;7383;52.354;9.756;2023-11-18T02:09:47;11.25;;;10.15;;
14592;SDS011;7383;52.354;9.756;2023-11-18T02:12:19;12.40;;;11.20;;
14592;SDS011;7383;52.354;9.756;2023-11-18T02:14:51;12.55;;;11.25;;
14592;SDS011;7383;52.354;9.756;2023-11-18T02:17:21;12.85;;;11.43;;
14592;SDS011;7383;52.354;9.756;2023-11-18T02:19:50;12.60;;;11.35;;
14592;SDS011;7383;52.354;9.756;2023-11-18T02:22:23;13.75;;;12.35;;
14592;SDS011;7383;52.354;9.756;2023-11-18T02:24:52;12.52;;;11.32;;
14592;SDS011;7383;52.354;9.756;2023-11-18T02:27:22;12.13;;;11.00;;
14592;SDS011;7383;52.354;9.756;2023-11-18T02:29:51;11.85;;;10.65;;
14592;SDS011;7383;52.354;9.756;2023-11-18T02:32:22;12.07;;;10.88;;
14592;SDS011;7383;52.354;9.756;2023-11-18T02:34:58;12.95;;;11.25;;
14592;SDS011;7383;52.354;9.756;2023-11-18T02:37:35;11.35;;;10.35;;
14592;SDS011;7383;52.354;9.756;2023-11-18T02:40:04;11.50;;;10.32;;
14592;SDS011;7383;52.354;9.756;2023-11-18T02:42:35;11.60;;;10.50;;
14592;SDS011;7383;52.354;9.756;2023-11-18T02:45:07;11.02;;;10.00;;
14592;SDS011;7383;52.354;9.756;2023-11-18T02:47:37;10.77;;;9.77;;
14592;SDS011;7383;52.354;9.756;2023-11-18T02:50:05;11.73;;;10.52;;
14592;SDS011;7383;52.354;9.756;2023-11-18T02:52:35;10.80;;;9.80;;
14592;SDS011;7383;52.354;9.756;2023-11-18T02:55:04;11.40;;;10.13;;
14592;SDS011;7383;52.354;9.756;2023-11-18T02:57:34;11.52;;;10.43;;
14592;SDS011;7383;52.354;9.756;2023-11-18T03:00:04;11.02;;;9.98;;
14592;SDS011;7383;52.354;9.756;2023-11-18T03:02:37;12.07;;;10.95;;
14592;SDS011;7383;52.354;9.756;2023-11-18T03:05:05;12.55;;;11.30;;
14592;SDS011;7383;52.354;9.756;2023-11-18T03:07:36;10.88;;;9.88;;
14592;SDS011;7383;52.354;9.756;2023-11-18T03:10:03;11.75;;;10.65;;
14592;SDS011;7383;52.354;9.756;2023-11-18T03:12:37;10.90;;;9.88;;
14592;SDS011;7383;52.354;9.756;2023-11-18T03:15:06;10.77;;;9.77;;
14592;SDS011;7383;52.354;9.756;2023-11-18T03:17:34;11.05;;;10.00;;
14592;SDS011;7383;52.354;9.756;2023-11-18T03:20:01;12.45;;;11.27;;
14592;SDS011;7383;52.354;9.756;2023-11-18T03:22:30;11.52;;;10.38;;
14592;SDS011;7383;52.354;9.756;2023-11-18T03:24:57;11.07;;;9.95;;
14592;SDS011;7383;52.354;9.756;2023-11-18T03:27:25;12.00;;;10.80;;
14592;SDS011;7383;52.354;9.756;2023-11-18T03:29:53;11.32;;;10.23;;
14592;SDS011;7383;52.354;9.756;2023-11-18T03:32:20;12.68;;;11.38;;
14592;SDS011;7383;52.354;9.756;2023-11-18T03:34:47;13.10;;;11.80;;
14592;SDS011;7383;52.354;9.756;2023-11-18T03:37:13;12.75;;;11.40;;
14592;SDS011;7383;52.354;9.756;2023-11-18T03:39:44;13.32;;;11.88;;
14592;SDS011;7383;52.354;9.756;2023-11-18T03:42:11;13.57;;;12.00;;
14592;SDS011;7383;52.354;9.756;2023-11-18T03:44:37;13.10;;;11.73;;
14592;SDS011;7383;52.354;9.756;2023-11-18T03:47:07;13.10;;;11.75;;
14592;SDS011;7383;52.354;9.756;2023-11-18T03:49:33;12.85;;;11.50;;
14592;SDS011;7383;52.354;9.756;2023-11-18T03:52:00;13.55;;;12.25;;
14592;SDS011;7383;52.354;9.756;2023-11-18T03:54:28;12.48;;;11.27;;
14592;SDS011;7383;52.354;9.756;2023-11-18T03:56:55;11.80;;;10.57;;
14592;SDS011;7383;52.354;9.756;2023-11-18T03:59:22;12.27;;;11.15;;
14592;SDS011;7383;52.354;9.756;2023-11-18T04:01:48;11.40;;;10.40;;
14592;SDS011;7383;52.354;9.756;2023-11-18T04:04:17;13.57;;;11.25;;
14592;SDS011;7383;52.354;9.756;2023-11-18T04:06:43;12.07;;;10.88;;
14592;SDS011;7383;52.354;9.756;2023-11-18T04:09:11;12.70;;;11.40;;
14592;SDS011;7383;52.354;9.756;2023-11-18T04:11:39;12.02;;;10.75;;
14592;SDS011;7383;52.354;9.756;2023-11-18T04:14:06;11.82;;;10.63;;
14592;SDS011;7383;52.354;9.756;2023-11-18T04:16:34;11.82;;;10.73;;
14592;SDS011;7383;52.354;9.756;2023-11-18T04:19:00;11.52;;;10.43;;
14592;SDS011;7383;52.354;9.756;2023-11-18T04:21:28;12.60;;;11.30;;
14592;SDS011;7383;52.354;9.756;2023-11-18T04:23:55;12.63;;;11.43;;
14592;SDS011;7383;52.354;9.756;2023-11-18T04:26:23;12.23;;;11.02;;
14592;SDS011;7383;52.354;9.756;2023-11-18T04:28:50;12.43;;;11.23;;
14592;SDS011;7383;52.354;9.756;2023-11-18T04:31:17;12.75;;;11.43;;
14592;SDS011;7383;52.354;9.756;2023-11-18T04:33:43;13.65;;;12.05;;
14592;SDS011;7383;52.354;9.756;2023-11-18T04:36:10;13.05;;;11.75;;
14592;SDS011;7383;52.354;9.756;2023-11-18T04:38:42;12.88;;;11.63;;
14592;SDS011;7383;52.354;9.756;2023-11-18T04:41:10;12.82;;;11.52;;
14592;SDS011;7383;52.354;9.756;2023-11-18T04:43:37;13.18;;;11.90;;
14592;SDS011;7383;52.354;9.756;2023-11-18T04:46:06;12.15;;;11.02;;
14592;SDS011;7383;52.354;9.756;2023-11-18T04:48:33;13.13;;;11.88;;
14592;SDS011;7383;52.354;9.756;2023-11-18T04:51:01;13.27;;;12.07;;
14592;SDS011;7383;52.354;9.756;2023-11-18T04:53:28;13.57;;;12.25;;
14592;SDS011;7383;52.354;9.756;2023-11-18T04:55:56;13.18;;;11.77;;
14592;SDS011;7383;52.354;9.756;2023-11-18T04:58:23;13.40;;;12.02;;
14592;SDS011;7383;52.354;9.756;2023-11-18T05:00:50;12.88;;;11.57;;
14592;SDS011;7383;52.354;9.756;2023-11-18T05:03:16;13.55;;;12.27;;
14592;SDS011;7383;52.354;9.756;2023-11-18T05:05:43;13.73;;;12.43;;
14592;SDS011;7383;52.354;9.756;2023-11-18T05:08:17;12.85;;;11.57;;
14592;SDS011;7383;52.354;9.756;2023-11-18T05:10:46;13.70;;;12.30;;
14592;SDS011;7383;52.354;9.756;2023-11-18T05:13:15;13.68;;;12.30;;
14592;SDS011;7383;52.354;9.756;2023-11-18T05:15:42;12.88;;;11.57;;
14592;SDS011;7383;52.354;9.756;2023-11-18T05:18:10;13.52;;;12.18;;
14592;SDS011;7383;52.354;9.756;2023-11-18T05:20:39;13.35;;;11.95;;
14592;SDS011;7383;52.354;9.756;2023-11-18T05:23:05;12.45;;;11.23;;
14592;SDS011;7383;52.354;9.756;2023-11-18T05:25:34;12.70;;;11.40;;
14592;SDS011;7383;52.354;9.756;2023-11-18T05:28:01;13.35;;;12.05;;
14592;SDS011;7383;52.354;9.756;2023-11-18T05:30:30;12.82;;;11.63;;
14592;SDS011;7383;52.354;9.756;2023-11-18T05:32:57;11.75;;;10.55;;
14592;SDS011;7383;52.354;9.756;2023-11-18T05:35:24;13.43;;;12.02;;
14592;SDS011;7383;52.354;9.756;2023-11-18T05:37:53;13.57;;;11.88;;
14592;SDS011;7383;52.354;9.756;2023-11-18T05:40:20;13.52;;;12.13;;
14592;SDS011;7383;52.354;9.756;2023-11-18T05:42:47;14.57;;;12.95;;
14592;SDS011;7383;52.354;9.756;2023-11-18T05:45:17;13.65;;;12.25;;
14592;SDS011;7383;52.354;9.756;2023-11-18T05:47:54;13.45;;;12.05;;
14592;SDS011;7383;52.354;9.756;2023-11-18T05:50:22;14.68;;;13.18;;
14592;SDS011;7383;52.354;9.756;2023-11-18T05:52:49;16.50;;;12.68;;
14592;SDS011;7383;52.354;9.756;2023-11-18T05:55:16;14.20;;;12.70;;
14592;SDS011;7383;52.354;9.756;2023-11-18T05:57:42;14.38;;;12.88;;
14592;SDS011;7383;52.354;9.756;2023-11-18T06:00:10;14.38;;;12.88;;
14592;SDS011;7383;52.354;9.756;2023-11-18T06:02:40;13.77;;;12.35;;
14592;SDS011;7383;52.354;9.756;2023-11-18T06:05:09;16.25;;;13.68;;
14592;SDS011;7383;52.354;9.756;2023-11-18T06:07:37;16.92;;;13.43;;
14592;SDS011;7383;52.354;9.756;2023-11-18T06:10:05;17.10;;;13.32;;
14592;SDS011;7383;52.354;9.756;2023-11-18T06:12:33;14.15;;;12.60;;
14592;SDS011;7383;52.354;9.756;2023-11-18T06:15:01;15.38;;;13.13;;
14592;SDS011;7383;52.354;9.756;2023-11-18T06:17:29;16.95;;;14.50;;
14592;SDS011;7383;52.354;9.756;2023-11-18T06:19:55;17.33;;;13.52;;
14592;SDS011;7383;52.354;9.756;2023-11-18T06:22:24;15.70;;;13.70;;
14592;SDS011;7383;52.354;9.756;2023-11-18T06:24:50;16.55;;;14.38;;
14592;SDS011;7383;52.354;9.756;2023-11-18T06:27:18;16.95;;;14.07;;
14592;SDS011;7383;52.354;9.756;2023-11-18T06:29:48;16.20;;;13.77;;
14592;SDS011;7383;52.354;9.756;2023-11-18T06:32:15;14.95;;;13.32;;
14592;SDS011;7383;52.354;9.756;2023-11-18T06:34:42;18.08;;;13.82;;
14592;SDS011;7383;52.354;9.756;2023-11-18T06:37:08;16.98;;;13.80;;
14592;SDS011;7383;52.354;9.756;2023-11-18T06:39:40;18.63;;;15.13;;
14592;SDS011;7383;52.354;9.756;2023-11-18T06:42:10;16.00;;;12.65;;
14592;SDS011;7383;52.354;9.756;2023-11-18T06:44:37;15.05;;;12.98;;
14592;SDS011;7383;52.354;9.756;2023-11-18T06:47:03;17.33;;;14.02;;
14592;SDS011;7383;52.354;9.756;2023-11-18T06:49:31;16.90;;;14.50;;
14592;SDS011;7383;52.354;9.756;2023-11-18T06:51:59;17.73;;;14.30;;
14592;SDS011;7383;52.354;9.756;2023-11-18T06:54:28;17.33;;;14.05;;
14592;SDS011;7383;52.354;9.756;2023-11-18T06:56:56;17.88;;;15.02;;
14592;SDS011;7383;52.354;9.756;2023-11-18T06:59:22;16.83;;;14.07;;
14592;SDS011;7383;52.354;9.756;2023-11-18T07:01:49;19.88;;;15.05;;
14592;SDS011;7383;52.354;9.756;2023-11-18T07:04:15;18.00;;;15.48;;
14592;SDS011;7383;52.354;9.756;2023-11-18T07:06:42;17.88;;;14.63;;
14592;SDS011;7383;52.354;9.756;2023-11-18T07:09:10;18.92;;;15.27;;
14592;SDS011;7383;52.354;9.756;2023-11-18T07:11:42;18.88;;;15.82;;
14592;SDS011;7383;52.354;9.756;2023-11-18T07:14:10;20.17;;;16.38;;
14592;SDS011;7383;52.354;9.756;2023-11-18T07:16:38;21.30;;;16.52;;
14592;SDS011;7383;52.354;9.756;2023-11-18T07:19:05;20.85;;;16.35;;
14592;SDS011;7383;52.354;9.756;2023-11-18T07:21:32;22.08;;;16.25;;
14592;SDS011;7383;52.354;9.756;2023-11-18T07:23:59;23.90;;;17.42;;
14592;SDS011;7383;52.354;9.756;2023-11-18T07:26:27;21.23;;;17.23;;
14592;SDS011;7383;52.354;9.756;2023-11-18T07:28:55;23.52;;;17.25;;
14592;SDS011;7383;52.354;9.756;2023-11-18T07:31:22;20.33;;;15.77;;
14592;SDS011;7383;52.354;9.756;2023-11-18T07:33:49;20.48;;;16.00;;
14592;SDS011;7383;52.354;9.756;2023-11-18T07:36:17;21.63;;;15.73;;
14592;SDS011;7383;52.354;9.756;2023-11-18T07:38:45;19.08;;;15.23;;
14592;SDS011;7383;52.354;9.756;2023-11-18T07:41:11;20.42;;;15.77;;
14592;SDS011;7383;52.354;9.756;2023-11-18T07:43:48;21.05;;;15.90;;
14592;SDS011;7383;52.354;9.756;2023-11-18T07:46:15;19.80;;;15.85;;
14592;SDS011;7383;52.354;9.756;2023-11-18T07:48:43;17.60;;;14.77;;
14592;SDS011;7383;52.354;9.756;2023-11-18T07:51:11;20.02;;;15.65;;
14592;SDS011;7383;52.354;9.756;2023-11-18T07:53:39;21.58;;;15.98;;
14592;SDS011;7383;52.354;9.756;2023-11-18T07:56:06;22.95;;;16.88;;
14592;SDS011;7383;52.354;9.756;2023-11-18T07:58:37;21.58;;;16.70;;
14592;SDS011;7383;52.354;9.756;2023-11-18T08:01:04;22.60;;;16.83;;
14592;SDS011;7383;52.354;9.756;2023-11-18T08:03:33;22.63;;;16.80;;
14592;SDS011;7383;52.354;9.756;2023-11-18T08:06:04;19.88;;;16.17;;
14592;SDS011;7383;52.354;9.756;2023-11-18T08:08:32;22.75;;;17.17;;
14592;SDS011;7383;52.354;9.756;2023-11-18T08:10:58;20.67;;;15.82;;
14592;SDS011;7383;52.354;9.756;2023-11-18T08:13:26;22.48;;;16.40;;
14592;SDS011;7383;52.354;9.756;2023-11-18T08:16:08;20.25;;;15.77;;
14592;SDS011;7383;52.354;9.756;2023-11-18T08:18:36;24.35;;;16.45;;
14592;SDS011;7383;52.354;9.756;2023-11-18T08:21:05;19.77;;;15.32;;
14592;SDS011;7383;52.354;9.756;2023-11-18T08:23:32;21.65;;;15.38;;
14592;SDS011;7383;52.354;9.756;2023-11-18T08:25:59;21.27;;;15.57;;
14592;SDS011;7383;52.354;9.756;2023-11-18T08:28:25;18.65;;;14.70;;
14592;SDS011;7383;52.354;9.756;2023-11-18T08:30:52;23.08;;;16.08;;
14592;SDS011;7383;52.354;9.756;2023-11-18T08:33:19;22.23;;;15.60;;
14592;SDS011;7383;52.354;9.756;2023-11-18T08:35:45;21.23;;;15.93;;
14592;SDS011;7383;52.354;9.756;2023-11-18T08:38:14;19.77;;;15.32;;
14592;SDS011;7383;52.354;9.756;2023-11-18T08:40:40;21.27;;;14.73;;
14592;SDS011;7383;52.354;9.756;2023-11-18T08:43:10;21.70;;;15.23;;
14592;SDS011;7383;52.354;9.756;2023-11-18T08:45:36;20.52;;;14.73;;
14592;SDS011;7383;52.354;9.756;2023-11-18T08:48:03;18.52;;;14.23;;
14592;SDS011;7383;52.354;9.756;2023-11-18T08:50:32;23.83;;;16.63;;
14592;SDS011;7383;52.354;9.756;2023-11-18T08:52:59;21.77;;;15.63;;
14592;SDS011;7383;52.354;9.756;2023-11-18T08:55:31;23.17;;;16.95;;
14592;SDS011;7383;52.354;9.756;2023-11-18T08:58:06;22.67;;;15.93;;
14592;SDS011;7383;52.354;9.756;2023-11-18T09:00:44;20.27;;;15.10;;
14592;SDS011;7383;52.354;9.756;2023-11-18T09:03:20;22.15;;;15.57;;
14592;SDS011;7383;52.354;9.756;2023-11-18T09:06:00;20.48;;;15.27;;
14592;SDS011;7383;52.354;9.756;2023-11-18T09:08:31;18.42;;;14.05;;
14592;SDS011;7383;52.354;9.756;2023-11-18T09:11:01;22.73;;;16.05;;
14592;SDS011;7383;52.354;9.756;2023-11-18T09:13:30;20.27;;;14.88;;
14592;SDS011;7383;52.354;9.756;2023-11-18T09:16:00;20.42;;;14.82;;
14592;SDS011;7383;52.354;9.756;2023-11-18T09:18:28;22.40;;;14.85;;
14592;SDS011;7383;52.354;9.756;2023-11-18T09:20:55;20.38;;;14.63;;
14592;SDS011;7383;52.354;9.756;2023-11-18T09:23:24;19.38;;;14.45;;
14592;SDS011;7383;52.354;9.756;2023-11-18T09:25:52;20.08;;;14.45;;
14592;SDS011;7383;52.354;9.756;2023-11-18T09:28:22;20.13;;;14.43;;
14592;SDS011;7383;52.354;9.756;2023-11-18T09:30:53;23.85;;;16.13;;
14592;SDS011;7383;52.354;9.756;2023-11-18T09:33:25;20.45;;;15.30;;
14592;SDS011;7383;52.354;9.756;2023-11-18T09:35:57;18.80;;;14.63;;
14592;SDS011;7383;52.354;9.756;2023-11-18T09:38:27;19.73;;;14.13;;
14592;SDS011;7383;52.354;9.756;2023-11-18T09:40:54;21.63;;;14.82;;
14592;SDS011;7383;52.354;9.756;2023-11-18T09:43:28;20.60;;;15.25;;
14592;SDS011;7383;52.354;9.756;2023-11-18T09:46:00;18.20;;;14.45;;
14592;SDS011;7383;52.354;9.756;2023-11-18T09:48:33;19.30;;;14.73;;
14592;SDS011;7383;52.354;9.756;2023-11-18T09:51:05;18.90;;;14.68;;
14592;SDS011;7383;52.354;9.756;2023-11-18T09:53:34;18.27;;;13.98;;
14592;SDS011;7383;52.354;9.756;2023-11-18T09:56:07;21.25;;;15.07;;
14592;SDS011;7383;52.354;9.756;2023-11-18T09:58:48;17.55;;;13.13;;
14592;SDS011;7383;52.354;9.756;2023-11-18T10:01:24;18.10;;;13.95;;
14592;SDS011;7383;52.354;9.756;2023-11-18T10:03:57;15.75;;;12.77;;
14592;SDS011;7383;52.354;9.756;2023-11-18T10:06:24;16.15;;;12.60;;
14592;SDS011;7383;52.354;9.756;2023-11-18T10:08:53;17.35;;;12.63;;
14592;SDS011;7383;52.354;9.756;2023-11-18T10:11:22;17.10;;;11.82;;
14592;SDS011;7383;52.354;9.756;2023-11-18T10:13:50;15.48;;;11.35;;
14592;SDS011;7383;52.354;9.756;2023-11-18T10:16:16;15.43;;;11.48;;
14592;SDS011;7383;52.354;9.756;2023-11-18T10:18:43;16.27;;;12.18;;
14592;SDS011;7383;52.354;9.756;2023-11-18T10:21:14;17.08;;;12.38;;
14592;SDS011;7383;52.354;9.756;2023-11-18T10:23:46;15.40;;;11.35;;
14592;SDS011;7383;52.354;9.756;2023-11-18T10:26:25;14.75;;;10.18;;
14592;SDS011;7383;52.354;9.756;2023-11-18T10:28:55;13.65;;;10.70;;
14592;SDS011;7383;52.354;9.756;2023-11-18T10:31:33;12.70;;;9.90;;
14592;SDS011;7383;52.354;9.756;2023-11-18T10:34:00;12.25;;;9.60;;
14592;SDS011;7383;52.354;9.756;2023-11-18T10:36:29;12.40;;;9.65;;
14592;SDS011;7383;52.354;9.756;2023-11-18T10:38:58;14.60;;;11.00;;
14592;SDS011;7383;52.354;9.756;2023-11-18T10:41:29;10.95;;;9.07;;
14592;SDS011;7383;52.354;9.756;2023-11-18T10:44:06;11.50;;;8.52;;
14592;SDS011;7383;52.354;9.756;2023-11-18T10:46:34;10.93;;;8.48;;
14592;SDS011;7383;52.354;9.756;2023-11-18T10:49:01;9.75;;;8.43;;
14592;SDS011;7383;52.354;9.756;2023-11-18T10:51:27;10.43;;;8.02;;
14592;SDS011;7383;52.354;9.756;2023-11-18T10:53:58;9.43;;;8.02;;
14592;SDS011;7383;52.354;9.756;2023-11-18T10:56:26;10.55;;;8.27;;
14592;SDS011;7383;52.354;9.756;2023-11-18T10:58:53;8.60;;;7.65;;
14592;SDS011;7383;52.354;9.756;2023-11-18T11:01:29;9.63;;;6.95;;
14592;SDS011;7383;52.354;9.756;2023-11-18T11:03:57;9.02;;;7.40;;
14592;SDS011;7383;52.354;9.756;2023-11-18T11:06:24;7.55;;;6.75;;
14592;SDS011;7383;52.354;9.756;2023-11-18T11:08:51;8.80;;;7.07;;
14592;SDS011;7383;52.354;9.756;2023-11-18T11:11:19;7.40;;;6.63;;
14592;SDS011;7383;52.354;9.756;2023-11-18T11:13:49;7.18;;;6.43;;
14592;SDS011;7383;52.354;9.756;2023-11-18T11:16:17;7.22;;;5.90;;
14592;SDS011;7383;52.354;9.756;2023-11-18T11:18:47;6.60;;;5.45;;
14592;SDS011;7383;52.354;9.756;2023-11-18T11:21:19;6.15;;;5.55;;
14592;SDS011;7383;52.354;9.756;2023-11-18T11:23:49;5.72;;;5.00;;
14592;SDS011;7383;52.354;9.756;2023-11-18T11:26:23;5.03;;;4.45;;
14592;SDS011;7383;52.354;9.756;2023-11-18T11:29:07;4.82;;;4.32;;
14592;SDS011;7383;52.354;9.756;2023-11-18T11:31:51;4.53;;;4.05;;
14592;SDS011;7383;52.354;9.756;2023-11-18T11:34:29;4.38;;;3.97;;
14592;SDS011;7383;52.354;9.756;2023-11-18T11:36:57;4.07;;;3.78;;
14592;SDS011;7383;52.354;9.756;2023-11-18T11:39:26;4.93;;;4.53;;
14592;SDS011;7383;52.354;9.756;2023-11-18T11:41:55;4.38;;;3.97;;
14592;SDS011;7383;52.354;9.756;2023-11-18T11:44:24;5.28;;;4.65;;
14592;SDS011;7383;52.354;9.756;2023-11-18T11:46:54;5.05;;;4.60;;
14592;SDS011;7383;52.354;9.756;2023-11-18T11:49:25;4.60;;;4.20;;
14592;SDS011;7383;52.354;9.756;2023-11-18T11:51:58;5.18;;;4.32;;
14592;SDS011;7383;52.354;9.756;2023-11-18T11:54:29;5.03;;;4.53;;
14592;SDS011;7383;52.354;9.756;2023-11-18T11:57:05;4.78;;;4.38;;
14592;SDS011;7383;52.354;9.756;2023-11-18T11:59:35;4.90;;;4.45;;
14592;SDS011;7383;52.354;9.756;2023-11-18T12:02:20;4.70;;;4.30;;
14592;SDS011;7383;52.354;9.756;2023-11-18T12:04:50;4.82;;;4.43;;
14592;SDS011;7383;52.354;9.756;2023-11-18T12:07:24;4.60;;;4.25;;
14592;SDS011;7383;52.354;9.756;2023-11-18T12:09:54;4.78;;;4.35;;
14592;SDS011;7383;52.354;9.756;2023-11-18T12:12:23;5.20;;;4.70;;
14592;SDS011;7383;52.354;9.756;2023-11-18T12:14:53;4.40;;;4.00;;
14592;SDS011;7383;52.354;9.756;2023-11-18T12:17:22;5.50;;;4.72;;
14592;SDS011;7383;52.354;9.756;2023-11-18T12:19:53;5.03;;;4.63;;
14592;SDS011;7383;52.354;9.756;2023-11-18T12:22:25;5.28;;;4.88;;
14592;SDS011;7383;52.354;9.756;2023-11-18T12:28:08;5.55;;;5.05;;
14592;SDS011;7383;52.354;9.756;2023-11-18T12:30:38;5.15;;;4.70;;
14592;SDS011;7383;52.354;9.756;2023-11-18T12:33:06;6.20;;;5.60;;
14592;SDS011;7383;52.354;9.756;2023-11-18T12:35:37;5.57;;;5.03;;
14592;SDS011;7383;52.354;9.756;2023-11-18T12:41:33;5.80;;;5.25;;
14592;SDS011;7383;52.354;9.756;2023-11-18T12:44:07;5.78;;;5.28;;
14592;SDS011;7383;52.354;9.756;2023-11-18T12:46:47;5.55;;;5.05;;
14592;SDS011;7383;52.354;9.756;2023-11-18T12:49:16;5.35;;;4.85;;
14592;SDS011;7383;52.354;9.756;2023-11-18T12:51:48;5.55;;;5.07;;
14592;SDS011;7383;52.354;9.756;2023-11-18T12:54:16;5.20;;;4.78;;
14592;SDS011;7383;52.354;9.756;2023-11-18T12:56:44;5.68;;;5.20;;
14592;SDS011;7383;52.354;9.756;2023-11-18T12:59:13;6.00;;;5.43;;
14592;SDS011;7383;52.354;9.756;2023-11-18T13:01:42;5.53;;;5.03;;
14592;SDS011;7383;52.354;9.756;2023-11-18T13:04:16;6.20;;;5.60;;
14592;SDS011;7383;52.354;9.756;2023-11-18T13:06:44;6.18;;;5.57;;
14592;SDS011;7383;52.354;9.756;2023-11-18T13:09:11;6.10;;;5.43;;
14592;SDS011;7383;52.354;9.756;2023-11-18T13:11:51;6.32;;;5.53;;
14592;SDS011;7383;52.354;9.756;2023-11-18T13:14:21;5.53;;;5.03;;
14592;SDS011;7383;52.354;9.756;2023-11-18T13:16:50;5.57;;;5.07;;
14592;SDS011;7383;52.354;9.756;2023-11-18T13:19:23;5.38;;;4.88;;
14592;SDS011;7383;52.354;9.756;2023-11-18T13:21:51;5.70;;;5.20;;
14592;SDS011;7383;52.354;9.756;2023-11-18T13:24:17;6.53;;;5.35;;
14592;SDS011;7383;52.354;9.756;2023-11-18T13:26:44;5.40;;;4.90;;
14592;SDS011;7383;52.354;9.756;2023-11-18T13:29:13;5.20;;;4.80;;
14592;SDS011;7383;52.354;9.756;2023-11-18T13:31:39;5.68;;;5.07;;
14592;SDS011;7383;52.354;9.756;2023-11-18T13:34:06;5.93;;;5.43;;
14592;SDS011;7383;52.354;9.756;2023-11-18T13:36:33;5.20;;;4.80;;
14592;SDS011;7383;52.354;9.756;2023-11-18T13:38:59;5.68;;;5.18;;
14592;SDS011;7383;52.354;9.756;2023-11-18T13:41:29;5.65;;;5.15;;
14592;SDS011;7383;52.354;9.756;2023-11-18T13:43:56;5.85;;;5.32;;
14592;SDS011;7383;52.354;9.756;2023-11-18T13:46:25;5.18;;;4.57;;
14592;SDS011;7383;52.354;9.756;2023-11-18T13:48:52;5.32;;;4.82;;
14592;SDS011;7383;52.354;9.756;2023-11-18T13:51:22;5.05;;;4.65;;
14592;SDS011;7383;52.354;9.756;2023-11-18T13:53:49;5.28;;;4.78;;
14592;SDS011;7383;52.354;9.756;2023-11-18T13:56:18;4.60;;;4.20;;
14592;SDS011;7383;52.354;9.756;2023-11-18T13:58:47;5.32;;;4.82;;
14592;SDS011;7383;52.354;9.756;2023-11-18T14:01:14;4.90;;;4.40;;
14592;SDS011;7383;52.354;9.756;2023-11-18T14:03:42;5.00;;;4.50;;
14592;SDS011;7383;52.354;9.756;2023-11-18T14:06:12;4.95;;;4.45;;
14592;SDS011;7383;52.354;9.756;2023-11-18T14:08:42;4.45;;;4.10;;
14592;SDS011;7383;52.354;9.756;2023-11-18T14:11:09;4.00;;;3.70;;
14592;SDS011;7383;52.354;9.756;2023-11-18T14:13:36;5.15;;;4.65;;
14592;SDS011;7383;52.354;9.756;2023-11-18T14:16:03;4.38;;;4.07;;
14592;SDS011;7383;52.354;9.756;2023-11-18T14:18:34;5.18;;;4.75;;
14592;SDS011;7383;52.354;9.756;2023-11-18T14:21:02;4.47;;;4.18;;
14592;SDS011;7383;52.354;9.756;2023-11-18T14:23:30;4.88;;;4.47;;
14592;SDS011;7383;52.354;9.756;2023-11-18T14:25:57;4.22;;;3.92;;
14592;SDS011;7383;52.354;9.756;2023-11-18T14:28:24;4.25;;;3.95;;
14592;SDS011;7383;52.354;9.756;2023-11-18T14:30:52;4.55;;;4.15;;
14592;SDS011;7383;52.354;9.756;2023-11-18T14:33:19;4.55;;;4.15;;
14592;SDS011;7383;52.354;9.756;2023-11-18T14:35:46;4.50;;;4.10;;
14592;SDS011;7383;52.354;9.756;2023-11-18T14:38:14;4.80;;;4.30;;
14592;SDS011;7383;52.354;9.756;2023-11-18T14:40:40;4.25;;;3.85;;
14592;SDS011;7383;52.354;9.756;2023-11-18T14:43:07;3.90;;;3.60;;
14592;SDS011;7383;52.354;9.756;2023-11-18T14:45:33;4.00;;;3.70;;
14592;SDS011;7383;52.354;9.756;2023-11-18T14:48:02;4.32;;;4.03;;
14592;SDS011;7383;52.354;9.756;2023-11-18T14:50:29;4.63;;;4.22;;
14592;SDS011;7383;52.354;9.756;2023-11-18T14:52:56;4.03;;;3.70;;
14592;SDS011;7383;52.354;9.756;2023-11-18T14:55:26;5.82;;;4.25;;
14592;SDS011;7383;52.354;9.756;2023-11-18T14:57:53;4.90;;;4.50;;
14592;SDS011;7383;52.354;9.756;2023-11-18T15:00:21;4.65;;;4.25;;
14592;SDS011;7383;52.354;9.756;2023-11-18T15:02:50;5.18;;;4.72;;
14592;SDS011;7383;52.354;9.756;2023-11-18T15:05:18;5.15;;;4.70;;